Time;durP1;ratioP1;P1;durP2;ratioP2;P2;SDS_P1;SDS_P2;PMS_P1;PMS_P2;Temp;Humidity;BMP_temperature;BMP_pressure;BME280_temperature;BME280_humidity;BME280_pressure;Samples;Min_cycle;Max_cycle;Signal;HPM_P1;HPM_P2
2023/06/10 00:00:26;;;;;;;18.33;13.00;;;19.80;69.80;;;;;;5091253;28;20462;-81
2023/06/10 00:02:55;;;;;;;18.90;12.10;;;19.70;69.80;;;;;;5089987;28;20491;-79
2023/06/10 00:05:23;;;;;;;20.33;11.17;;;19.70;69.90;;;;;;5095523;28;20944;-78
2023/06/10 00:07:55;;;;;;;16.90;12.90;;;19.60;69.90;;;;;;5107604;28;20451;-79
2023/06/10 00:10:24;;;;;;;16.10;13.07;;;19.60;70.00;;;;;;5111803;28;20511;-83
2023/06/10 00:12:54;;;;;;;15.50;13.10;;;19.50;70.10;;;;;;5093036;28;20492;-81
2023/06/10 00:15:22;;;;;;;16.57;12.27;;;19.50;70.20;;;;;;5088835;28;20466;-83
2023/06/10 00:17:52;;;;;;;21.40;12.20;;;19.40;70.30;;;;;;5092120;28;20463;-83
2023/06/10 00:20:23;;;;;;;14.17;11.77;;;19.50;70.40;;;;;;5107156;28;20526;-83
2023/06/10 00:22:51;;;;;;;13.60;11.60;;;19.40;70.40;;;;;;5107685;28;20504;-83
2023/06/10 00:25:19;;;;;;;14.20;11.30;;;19.40;70.40;;;;;;5104671;28;20970;-82
2023/06/10 00:27:47;;;;;;;16.70;11.80;;;19.40;70.40;;;;;;5078393;28;20549;-83
2023/06/10 00:30:15;;;;;;;15.50;12.00;;;19.40;70.40;;;;;;5096842;28;20527;-81
2023/06/10 00:32:43;;;;;;;16.97;12.73;;;19.40;70.40;;;;;;5102549;28;20523;-85
2023/06/10 00:35:13;;;;;;;14.20;12.07;;;19.40;70.30;;;;;;5099916;28;20485;-84
2023/06/10 00:37:41;;;;;;;14.10;11.67;;;19.30;70.30;;;;;;5090665;28;20463;-84
2023/06/10 00:40:14;;;;;;;16.10;12.30;;;19.30;70.40;;;;;;5092407;28;20455;-85
2023/06/10 00:42:43;;;;;;;19.60;11.83;;;19.30;70.40;;;;;;5089049;28;20506;-82
2023/06/10 00:45:11;;;;;;;14.30;11.57;;;19.20;70.40;;;;;;5086385;28;20458;-80
2023/06/10 00:47:40;;;;;;;20.93;12.30;;;19.20;70.40;;;;;;5106633;28;20490;-79
2023/06/10 00:50:10;;;;;;;15.73;12.63;;;19.10;70.40;;;;;;5100246;28;20482;-79
2023/06/10 00:52:39;;;;;;;16.63;11.90;;;19.20;70.50;;;;;;5096243;28;20500;-79
2023/06/10 00:55:09;;;;;;;14.40;11.40;;;19.10;70.50;;;;;;5086364;28;20542;-80
2023/06/10 00:57:38;;;;;;;15.20;12.57;;;19.10;70.40;;;;;;5100609;28;20455;-80
2023/06/10 01:00:10;;;;;;;17.10;12.50;;;19.10;70.40;;;;;;5084867;28;20459;-80
2023/06/10 01:02:38;;;;;;;20.17;12.07;;;19.00;70.30;;;;;;5091065;28;20499;-79
2023/06/10 01:05:06;;;;;;;17.20;12.80;;;18.90;70.40;;;;;;5085733;28;20465;-83
2023/06/10 01:07:41;;;;;;;13.50;11.10;;;18.90;70.40;;;;;;5099460;28;20856;-80
2023/06/10 01:10:17;;;;;;;13.67;11.40;;;18.90;70.50;;;;;;5101776;28;20505;-78
2023/06/10 01:12:51;;;;;;;28.20;10.70;;;18.90;70.70;;;;;;5089293;28;20542;-79
2023/06/10 01:15:22;;;;;;;15.37;10.40;;;18.90;70.50;;;;;;5103983;28;20459;-80
2023/06/10 01:17:58;;;;;;;14.83;10.13;;;18.90;70.40;;;;;;5086844;28;20452;-81
2023/06/10 01:20:28;;;;;;;18.17;11.93;;;18.80;70.30;;;;;;5085060;28;20445;-80
2023/06/10 01:22:59;;;;;;;17.13;11.30;;;18.80;70.40;;;;;;5104152;28;20469;-79
2023/06/10 01:25:29;;;;;;;14.17;11.40;;;18.70;70.40;;;;;;5102334;28;20508;-78
2023/06/10 01:28:05;;;;;;;21.87;12.30;;;18.70;70.40;;;;;;5088040;28;20449;-80
2023/06/10 01:30:41;;;;;;;19.00;11.57;;;18.70;70.30;;;;;;5082161;28;20821;-80
2023/06/10 01:33:11;;;;;;;15.17;11.53;;;18.60;70.20;;;;;;5108983;28;20531;-78
2023/06/10 01:35:44;;;;;;;16.90;12.87;;;18.60;70.20;;;;;;5107593;28;20967;-80
2023/06/10 01:38:16;;;;;;;16.10;11.37;;;18.60;70.20;;;;;;5103311;28;20474;-82
2023/06/10 01:40:45;;;;;;;17.93;12.30;;;18.50;70.30;;;;;;5090006;28;20438;-81
2023/06/10 01:43:13;;;;;;;21.70;12.67;;;18.50;70.20;;;;;;5107782;28;20511;-80
2023/06/10 01:45:41;;;;;;;20.67;12.73;;;18.50;70.20;;;;;;5108298;28;20463;-79
2023/06/10 01:48:09;;;;;;;16.03;12.23;;;18.40;70.20;;;;;;5109719;28;20544;-82
2023/06/10 01:50:37;;;;;;;21.23;12.70;;;18.40;70.30;;;;;;5109437;28;20814;-82
2023/06/10 01:53:06;;;;;;;18.27;12.60;;;18.30;70.30;;;;;;5109286;28;20488;-82
2023/06/10 01:55:35;;;;;;;16.50;12.63;;;18.30;70.60;;;;;;5094685;28;20452;-84
2023/06/10 01:58:03;;;;;;;15.10;13.33;;;18.30;70.60;;;;;;5105196;28;20802;-84
2023/06/10 02:00:31;;;;;;;16.00;11.80;;;18.30;70.60;;;;;;5083708;28;20460;-84
2023/06/10 02:03:00;;;;;;;20.97;11.70;;;18.40;70.70;;;;;;5111736;28;20445;-84
2023/06/10 02:05:28;;;;;;;20.07;12.67;;;18.40;70.60;;;;;;5105946;28;20494;-82
2023/06/10 02:07:56;;;;;;;21.90;12.67;;;18.40;70.50;;;;;;5112390;28;20525;-81
2023/06/10 02:10:24;;;;;;;21.97;12.73;;;18.40;70.40;;;;;;5108872;28;20474;-79
2023/06/10 02:12:54;;;;;;;20.90;11.37;;;18.40;70.40;;;;;;5104728;28;20522;-81
2023/06/10 02:15:22;;;;;;;20.20;13.20;;;18.30;70.30;;;;;;5088256;28;20458;-80
2023/06/10 02:17:50;;;;;;;15.53;12.27;;;18.30;70.40;;;;;;5097369;28;20553;-81
2023/06/10 02:20:19;;;;;;;19.23;12.57;;;18.30;70.20;;;;;;5089439;28;21949;-81
2023/06/10 02:22:47;;;;;;;18.43;12.03;;;18.20;70.20;;;;;;5107354;28;20452;-80
2023/06/10 02:25:15;;;;;;;20.03;11.90;;;18.20;70.20;;;;;;5110928;28;20548;-80
2023/06/10 02:27:43;;;;;;;17.03;12.33;;;18.20;70.20;;;;;;5087247;28;20463;-81
2023/06/10 02:30:14;;;;;;;19.87;12.13;;;18.10;70.20;;;;;;5076389;28;21034;-80
2023/06/10 02:32:47;;;;;;;17.97;12.43;;;18.10;70.30;;;;;;5092362;28;20442;-79
2023/06/10 02:35:18;;;;;;;16.87;12.43;;;18.10;70.40;;;;;;5091875;28;20440;-79
2023/06/10 02:37:46;;;;;;;17.97;13.23;;;18.10;70.40;;;;;;5091052;28;20458;-79
2023/06/10 02:40:14;;;;;;;15.07;12.17;;;18.10;70.40;;;;;;5091865;28;20503;-80
2023/06/10 02:42:42;;;;;;;15.27;11.17;;;18.10;70.40;;;;;;5093493;28;20454;-79
2023/06/10 02:45:11;;;;;;;24.80;12.67;;;18.00;70.40;;;;;;5086144;28;20464;-81
2023/06/10 02:47:42;;;;;;;17.77;12.50;;;18.00;70.30;;;;;;5092141;28;21068;-80
2023/06/10 02:50:12;;;;;;;16.17;11.40;;;18.00;70.30;;;;;;5092655;28;20503;-79
2023/06/10 02:52:57;;;;;;;16.43;13.10;;;18.00;70.20;;;;;;5094382;28;20456;-80
2023/06/10 02:55:26;;;;;;;16.93;12.40;;;18.00;70.20;;;;;;5105706;28;20459;-79
2023/06/10 02:58:00;;;;;;;18.83;12.87;;;17.90;70.30;;;;;;5094221;28;21039;-80
2023/06/10 03:00:28;;;;;;;17.13;12.53;;;17.90;70.30;;;;;;5081129;28;20504;-81
2023/06/10 03:02:58;;;;;;;14.83;10.97;;;17.80;70.30;;;;;;5084620;28;20993;-79
2023/06/10 03:05:32;;;;;;;14.10;11.40;;;17.80;70.50;;;;;;5088947;28;20541;-80
2023/06/10 03:08:04;;;;;;;14.67;11.93;;;17.80;70.40;;;;;;5087205;28;20521;-79
2023/06/10 03:10:34;;;;;;;23.10;12.57;;;17.80;70.40;;;;;;5088349;28;21012;-82
2023/06/10 03:13:03;;;;;;;17.70;12.13;;;17.70;70.40;;;;;;5096414;28;20449;-80
2023/06/10 03:15:33;;;;;;;17.73;12.67;;;17.70;70.40;;;;;;5086483;28;20462;-81
2023/06/10 03:18:07;;;;;;;17.97;12.37;;;17.60;70.40;;;;;;5083229;28;20451;-81
2023/06/10 03:20:39;;;;;;;21.17;12.77;;;17.60;70.70;;;;;;5086519;28;20461;-83
2023/06/10 03:23:10;;;;;;;17.83;13.23;;;17.60;70.80;;;;;;5091974;28;20449;-82
2023/06/10 03:25:38;;;;;;;16.50;11.40;;;17.60;70.70;;;;;;5094428;28;20457;-83
2023/06/10 03:28:06;;;;;;;18.17;12.17;;;17.50;70.70;;;;;;5082883;28;20546;-79
2023/06/10 03:30:36;;;;;;;16.03;11.80;;;17.40;70.90;;;;;;5091935;28;20552;-80
2023/06/10 03:33:06;;;;;;;16.13;10.93;;;17.50;71.00;;;;;;5092115;28;20943;-78
2023/06/10 03:35:34;;;;;;;21.43;12.40;;;17.50;71.00;;;;;;5081211;28;20445;-78
2023/06/10 03:38:03;;;;;;;14.20;12.13;;;17.50;71.10;;;;;;5090232;28;20456;-79
2023/06/10 03:40:32;;;;;;;16.73;12.40;;;17.50;71.00;;;;;;5109935;28;20442;-79
2023/06/10 03:43:01;;;;;;;16.50;11.83;;;17.60;71.00;;;;;;5105159;28;20458;-78
2023/06/10 03:45:31;;;;;;;20.63;12.20;;;17.60;71.10;;;;;;5086174;28;20460;-79
2023/06/10 03:48:00;;;;;;;16.13;12.20;;;17.60;71.10;;;;;;5089603;28;20591;-80
2023/06/10 03:50:37;;;;;;;18.07;12.33;;;17.60;71.10;;;;;;5091945;28;20483;-78
2023/06/10 03:53:05;;;;;;;16.93;11.40;;;17.60;71.10;;;;;;5090307;28;20549;-81
2023/06/10 03:55:33;;;;;;;17.30;11.43;;;17.60;71.00;;;;;;5089984;28;20454;-82
2023/06/10 03:58:13;;;;;;;19.80;11.40;;;17.60;70.90;;;;;;5109112;28;20448;-81
2023/06/10 04:00:42;;;;;;;17.63;12.33;;;17.60;71.00;;;;;;5098512;28;20522;-82
2023/06/10 04:03:14;;;;;;;20.90;12.00;;;17.70;71.00;;;;;;5100572;28;20549;-82
2023/06/10 04:05:51;;;;;;;18.70;12.10;;;17.70;70.90;;;;;;5098385;28;20554;-82
2023/06/10 04:08:20;;;;;;;22.87;12.67;;;17.70;70.80;;;;;;5100148;28;20463;-79
2023/06/10 04:10:49;;;;;;;17.20;12.97;;;17.70;70.80;;;;;;5101319;28;20503;-79
2023/06/10 04:13:17;;;;;;;18.90;12.80;;;17.70;70.90;;;;;;5090598;28;20463;-79
2023/06/10 04:15:52;;;;;;;16.27;13.50;;;17.70;70.90;;;;;;5092917;28;20449;-79
2023/06/10 04:18:21;;;;;;;16.67;12.90;;;17.70;71.00;;;;;;5092178;28;20449;-80
2023/06/10 04:20:51;;;;;;;18.13;14.87;;;17.80;71.00;;;;;;5077742;28;20453;-78
2023/06/10 04:23:20;;;;;;;20.50;12.87;;;17.90;71.10;;;;;;5085928;28;20484;-82
2023/06/10 04:25:48;;;;;;;26.00;14.17;;;18.00;71.10;;;;;;5089547;28;20465;-84
2023/06/10 04:28:16;;;;;;;16.73;11.80;;;18.10;71.00;;;;;;5088378;28;20462;-81
2023/06/10 04:30:47;;;;;;;23.30;12.77;;;18.10;71.00;;;;;;5088180;28;21135;-83
2023/06/10 04:33:15;;;;;;;16.50;11.87;;;18.30;71.00;;;;;;5091286;28;20488;-83
2023/06/10 04:36:15;;;;;;;18.13;11.50;;;18.40;71.00;;;;;;5087206;28;20454;-83
2023/06/10 04:38:43;;;;;;;18.97;13.53;;;18.50;70.90;;;;;;5083229;28;20456;-80
2023/06/10 04:41:11;;;;;;;21.87;13.77;;;18.70;70.80;;;;;;5096707;28;20466;-79
2023/06/10 04:43:40;;;;;;;22.57;12.80;;;18.80;70.70;;;;;;5089376;28;20466;-79
2023/06/10 04:46:08;;;;;;;16.20;11.97;;;18.90;70.70;;;;;;5087013;28;20499;-79
2023/06/10 04:48:37;;;;;;;18.67;13.17;;;19.10;70.60;;;;;;5084440;28;20532;-80
2023/06/10 04:51:05;;;;;;;20.93;12.60;;;19.20;70.70;;;;;;5090440;28;20574;-79
2023/06/10 04:53:34;;;;;;;23.20;12.70;;;19.30;70.70;;;;;;5099388;28;20456;-80
2023/06/10 04:56:02;;;;;;;20.60;12.60;;;19.40;70.70;;;;;;5086896;28;20455;-80
2023/06/10 04:58:34;;;;;;;19.97;13.53;;;19.60;70.70;;;;;;5090229;28;20467;-83
2023/06/10 05:01:02;;;;;;;19.13;13.10;;;19.70;70.50;;;;;;5087950;28;20468;-81
2023/06/10 05:03:30;;;;;;;20.67;13.07;;;19.90;70.40;;;;;;5101669;28;20546;-82
2023/06/10 05:05:59;;;;;;;17.77;13.30;;;20.00;70.30;;;;;;5090678;28;20470;-82
2023/06/10 05:08:27;;;;;;;19.13;13.83;;;20.10;70.30;;;;;;5092495;28;20459;-83
2023/06/10 05:10:58;;;;;;;18.10;13.47;;;20.30;70.20;;;;;;5108568;28;20460;-81
2023/06/10 05:13:26;;;;;;;16.20;13.60;;;20.40;70.10;;;;;;5088323;28;20465;-84
2023/06/10 05:15:54;;;;;;;18.03;13.17;;;20.60;70.10;;;;;;5095337;28;20463;-83
2023/06/10 05:18:22;;;;;;;23.70;13.27;;;20.70;70.00;;;;;;5106730;28;20579;-85
2023/06/10 05:20:51;;;;;;;16.30;14.13;;;20.90;70.00;;;;;;5103138;28;20554;-81
2023/06/10 05:23:19;;;;;;;17.17;13.40;;;21.00;69.80;;;;;;5094933;28;20456;-82
2023/06/10 05:25:47;;;;;;;16.60;12.63;;;21.20;69.80;;;;;;5092273;28;20505;-81
2023/06/10 05:28:34;;;;;;;15.03;12.40;;;21.30;69.70;;;;;;5108949;28;20543;-83
2023/06/10 05:31:02;;;;;;;13.20;11.00;;;21.60;69.70;;;;;;5099555;28;20548;-82
2023/06/10 05:33:30;;;;;;;12.53;9.83;;;21.70;69.70;;;;;;5103448;28;20480;-81
2023/06/10 05:35:58;;;;;;;13.27;10.10;;;22.00;69.90;;;;;;5111143;28;20448;-81
2023/06/10 05:38:29;;;;;;;12.57;9.87;;;22.40;69.30;;;;;;5104856;28;20783;-82
2023/06/10 05:40:58;;;;;;;13.23;9.53;;;23.10;67.80;;;;;;5088120;28;20457;-83
2023/06/10 05:43:27;;;;;;;15.03;9.90;;;23.90;66.20;;;;;;5093001;28;20445;-82
2023/06/10 05:45:56;;;;;;;13.70;10.00;;;24.80;64.50;;;;;;5097621;28;20456;-83
2023/06/10 05:48:24;;;;;;;11.83;8.90;;;25.70;63.10;;;;;;5107106;28;20512;-83
2023/06/10 05:50:52;;;;;;;12.13;9.80;;;26.50;61.90;;;;;;5086770;28;20452;-82
2023/06/10 05:53:20;;;;;;;11.27;8.90;;;27.10;60.90;;;;;;5112303;28;20476;-83
2023/06/10 05:55:48;;;;;;;11.40;8.30;;;27.70;60.10;;;;;;5111267;28;20477;-84
2023/06/10 05:58:16;;;;;;;12.57;9.37;;;28.20;59.20;;;;;;5108179;28;20834;-83
2023/06/10 06:00:44;;;;;;;13.70;10.43;;;28.80;58.40;;;;;;5110314;28;20474;-82
2023/06/10 06:03:13;;;;;;;11.17;9.90;;;29.30;57.60;;;;;;5091148;28;20440;-84
2023/06/10 06:05:42;;;;;;;12.10;9.53;;;29.90;56.80;;;;;;5105301;28;20455;-83
2023/06/10 06:08:10;;;;;;;14.80;8.97;;;30.40;55.80;;;;;;5102542;28;20459;-83
2023/06/10 06:10:38;;;;;;;11.40;8.60;;;30.70;54.90;;;;;;5104490;28;20476;-84
2023/06/10 06:13:06;;;;;;;14.77;9.70;;;30.40;54.30;;;;;;5083723;28;20499;-82
2023/06/10 06:15:34;;;;;;;10.50;9.00;;;29.90;54.50;;;;;;5090310;28;20452;-84
2023/06/10 06:18:02;;;;;;;10.17;8.33;;;29.40;54.40;;;;;;5102372;28;20451;-83
2023/06/10 06:20:31;;;;;;;16.13;8.90;;;28.90;54.50;;;;;;5098950;28;21161;-83
2023/06/10 06:22:59;;;;;;;11.77;9.10;;;28.40;54.90;;;;;;5094628;28;20543;-81
2023/06/10 06:25:27;;;;;;;11.17;9.27;;;27.80;55.20;;;;;;5105528;28;20538;-84
2023/06/10 06:27:55;;;;;;;10.90;8.43;;;27.40;55.60;;;;;;5097874;28;20472;-83
2023/06/10 06:30:23;;;;;;;10.90;8.73;;;26.90;55.90;;;;;;5106375;28;20505;-82
2023/06/10 06:32:51;;;;;;;14.93;9.77;;;26.50;56.30;;;;;;5094391;28;20476;-81
2023/06/10 06:35:19;;;;;;;12.53;9.23;;;26.00;56.70;;;;;;5091083;28;20461;-84
2023/06/10 06:37:49;;;;;;;15.63;10.17;;;25.60;57.20;;;;;;5104449;28;20505;-84
2023/06/10 06:40:22;;;;;;;18.13;9.83;;;25.20;57.80;;;;;;5087830;28;20468;-83
2023/06/10 06:42:50;;;;;;;12.40;8.87;;;24.80;58.30;;;;;;5105944;28;21006;-83
2023/06/10 06:45:24;;;;;;;17.10;8.90;;;24.60;58.70;;;;;;5105210;28;20456;-83
2023/06/10 06:47:52;;;;;;;14.90;10.17;;;24.30;59.10;;;;;;5097690;28;20452;-82
2023/06/10 06:50:20;;;;;;;12.80;10.60;;;24.10;59.70;;;;;;5111283;28;21011;-86
2023/06/10 06:52:49;;;;;;;14.80;9.90;;;23.90;60.00;;;;;;5106368;28;20472;-79
2023/06/10 06:55:17;;;;;;;14.50;9.00;;;23.70;60.10;;;;;;5096802;28;20484;-80
2023/06/10 06:57:45;;;;;;;15.77;9.77;;;23.60;60.20;;;;;;5099794;28;20484;-82
2023/06/10 07:00:14;;;;;;;13.90;10.00;;;23.50;60.50;;;;;;5089630;28;21502;-79
2023/06/10 07:02:42;;;;;;;12.83;10.67;;;23.30;60.80;;;;;;5109012;28;20990;-80
2023/06/10 07:05:10;;;;;;;14.30;10.10;;;23.20;61.10;;;;;;5107418;28;20448;-80
2023/06/10 07:07:39;;;;;;;12.87;10.50;;;23.20;61.30;;;;;;5085377;28;20464;-83
2023/06/10 07:10:09;;;;;;;14.10;10.80;;;23.10;61.50;;;;;;5103583;28;20918;-82
2023/06/10 07:12:37;;;;;;;15.70;9.77;;;23.00;61.80;;;;;;5112902;28;20531;-82
2023/06/10 07:15:06;;;;;;;14.30;10.27;;;23.00;61.90;;;;;;5095553;28;20448;-82
2023/06/10 07:17:35;;;;;;;14.50;10.47;;;23.00;62.20;;;;;;5106388;28;20460;-82
2023/06/10 07:20:03;;;;;;;12.40;10.37;;;23.10;62.20;;;;;;5109440;28;20448;-81
2023/06/10 07:22:31;;;;;;;14.97;10.00;;;23.00;62.40;;;;;;5103179;28;20947;-83
2023/06/10 07:24:59;;;;;;;14.07;9.63;;;23.00;62.60;;;;;;5110650;28;20516;-83
2023/06/10 07:27:29;;;;;;;15.83;10.53;;;23.10;62.60;;;;;;5103768;28;20500;-83
2023/06/10 07:29:57;;;;;;;14.47;9.83;;;23.10;62.70;;;;;;5109224;28;20452;-82
2023/06/10 07:32:25;;;;;;;15.50;10.33;;;23.20;62.60;;;;;;5092968;28;20477;-83
2023/06/10 07:34:53;;;;;;;13.27;11.13;;;23.20;62.90;;;;;;5087208;28;20476;-82
2023/06/10 07:37:21;;;;;;;11.30;10.10;;;23.20;63.00;;;;;;5096720;28;20459;-82
2023/06/10 07:39:49;;;;;;;14.80;10.80;;;23.30;62.90;;;;;;5098539;28;20449;-83
2023/06/10 07:42:17;;;;;;;13.37;10.47;;;23.40;62.90;;;;;;5109200;28;20462;-82
2023/06/10 07:44:46;;;;;;;13.00;9.43;;;23.50;62.80;;;;;;5105287;28;21169;-81
2023/06/10 07:47:14;;;;;;;12.90;10.40;;;23.50;62.70;;;;;;5101171;28;20455;-82
2023/06/10 07:49:42;;;;;;;15.40;9.90;;;23.50;62.90;;;;;;5103799;28;20538;-81
2023/06/10 07:52:10;;;;;;;15.77;10.90;;;23.60;63.00;;;;;;5087598;28;20479;-82
2023/06/10 07:54:38;;;;;;;13.10;9.50;;;23.70;62.80;;;;;;5087792;28;20540;-82
2023/06/10 07:57:08;;;;;;;14.63;11.47;;;23.70;62.70;;;;;;5080766;28;20448;-81
2023/06/10 07:59:36;;;;;;;19.90;10.40;;;23.80;62.60;;;;;;5106182;28;20536;-81
2023/06/10 08:02:06;;;;;;;12.00;8.50;;;23.90;62.50;;;;;;5094432;28;20478;-81
2023/06/10 08:04:35;;;;;;;15.40;9.10;;;23.90;62.40;;;;;;5094820;28;20449;-81
2023/06/10 08:07:03;;;;;;;14.00;8.30;;;24.00;62.20;;;;;;5103757;28;20957;-82
2023/06/10 08:09:31;;;;;;;14.47;10.27;;;24.10;61.90;;;;;;5095472;28;20458;-82
2023/06/10 08:11:59;;;;;;;12.27;10.00;;;24.20;61.90;;;;;;5104964;28;20484;-82
2023/06/10 08:14:27;;;;;;;11.60;9.17;;;24.30;61.60;;;;;;5089631;28;20552;-83
2023/06/10 08:16:55;;;;;;;10.70;9.17;;;24.30;61.50;;;;;;5098331;28;20961;-82
2023/06/10 08:19:25;;;;;;;11.43;9.20;;;24.40;61.40;;;;;;5106278;28;20804;-82
2023/06/10 08:21:53;;;;;;;10.60;8.43;;;24.40;61.40;;;;;;5092180;28;20886;-82
2023/06/10 08:24:21;;;;;;;11.33;8.67;;;24.50;61.40;;;;;;5083150;28;20440;-81
2023/06/10 08:26:49;;;;;;;11.00;9.10;;;24.50;61.10;;;;;;5088751;28;20452;-82
2023/06/10 08:29:17;;;;;;;13.30;9.20;;;24.60;60.80;;;;;;5082997;28;20557;-82
2023/06/10 08:31:46;;;;;;;11.70;9.80;;;24.60;60.70;;;;;;5106928;28;20837;-81
2023/06/10 08:34:14;;;;;;;12.73;8.70;;;24.70;60.60;;;;;;5088531;28;20475;-82
2023/06/10 08:36:44;;;;;;;11.63;8.70;;;24.70;60.60;;;;;;5096251;28;20540;-82
2023/06/10 08:39:12;;;;;;;10.40;8.60;;;24.70;60.50;;;;;;5088325;28;20471;-82
2023/06/10 08:41:44;;;;;;;11.03;8.77;;;24.80;60.40;;;;;;5100663;28;20796;-80
2023/06/10 08:44:19;;;;;;;11.77;8.00;;;24.80;60.50;;;;;;5084065;28;20531;-81
2023/06/10 08:46:48;;;;;;;10.27;8.20;;;24.90;60.40;;;;;;5103889;28;20458;-82
2023/06/10 08:49:20;;;;;;;11.40;8.80;;;24.90;60.20;;;;;;5090292;28;20917;-82
2023/06/10 08:51:51;;;;;;;13.87;7.80;;;25.00;60.20;;;;;;5086476;28;20494;-81
2023/06/10 08:54:24;;;;;;;9.33;7.00;;;25.00;60.00;;;;;;5104650;28;20474;-82
2023/06/10 08:56:54;;;;;;;10.77;8.80;;;25.10;59.80;;;;;;5101040;28;20540;-82
2023/06/10 08:59:23;;;;;;;14.93;8.23;;;25.10;59.90;;;;;;5086286;28;20536;-83
2023/06/10 09:01:51;;;;;;;10.17;8.43;;;25.20;59.80;;;;;;5107828;28;20463;-83
2023/06/10 09:04:20;;;;;;;10.50;8.37;;;25.20;59.90;;;;;;5109035;28;20505;-83
2023/06/10 09:06:50;;;;;;;10.53;7.87;;;25.30;59.80;;;;;;5098091;28;20528;-83
2023/06/10 09:09:20;;;;;;;11.77;8.27;;;25.30;59.60;;;;;;5092138;28;20528;-82
2023/06/10 09:11:48;;;;;;;11.60;7.80;;;25.30;59.30;;;;;;5105804;28;20466;-83
2023/06/10 09:14:16;;;;;;;9.20;6.93;;;25.30;59.40;;;;;;5103890;28;20835;-82
2023/06/10 09:16:46;;;;;;;11.53;7.37;;;25.40;59.10;;;;;;5104978;28;20456;-83
2023/06/10 09:19:16;;;;;;;11.93;6.97;;;25.40;59.10;;;;;;5105757;28;20454;-81
2023/06/10 09:21:44;;;;;;;13.40;7.60;;;25.50;59.00;;;;;;5096274;28;20445;-82
2023/06/10 09:24:14;;;;;;;14.83;7.97;;;25.50;58.90;;;;;;5082319;28;20459;-84
2023/06/10 09:26:43;;;;;;;10.70;6.80;;;25.60;58.80;;;;;;5088519;28;20548;-83
2023/06/10 09:29:11;;;;;;;9.50;6.50;;;25.60;58.70;;;;;;5085692;28;20483;-82
2023/06/10 09:31:40;;;;;;;8.97;7.07;;;25.70;58.60;;;;;;5090881;28;20479;-80
2023/06/10 09:34:10;;;;;;;10.63;7.00;;;25.80;58.40;;;;;;5104654;28;20535;-81
2023/06/10 09:36:39;;;;;;;12.03;7.43;;;25.80;58.40;;;;;;5090101;28;20460;-81
2023/06/10 09:39:17;;;;;;;10.37;8.17;;;25.80;58.40;;;;;;5099684;28;20969;-81
2023/06/10 09:41:46;;;;;;;11.00;7.13;;;25.80;58.30;;;;;;5102092;28;20517;-80
2023/06/10 09:44:15;;;;;;;10.70;6.57;;;25.90;58.20;;;;;;5102385;28;20443;-81
2023/06/10 09:46:46;;;;;;;8.83;6.53;;;25.90;58.20;;;;;;5081213;28;20487;-82
2023/06/10 09:49:13;;;;;;;11.30;6.37;;;26.00;58.10;;;;;;5072518;28;20544;-82
2023/06/10 09:51:52;;;;;;;9.03;6.60;;;26.00;58.00;;;;;;5105924;28;20482;-83
2023/06/10 09:54:21;;;;;;;12.40;7.60;;;26.10;57.70;;;;;;5108307;28;20475;-81
2023/06/10 09:56:50;;;;;;;9.83;5.80;;;26.10;57.60;;;;;;5093225;28;20460;-82
2023/06/10 09:59:29;;;;;;;9.20;6.57;;;26.20;57.60;;;;;;5091622;28;20448;-82
2023/06/10 10:01:57;;;;;;;9.23;7.03;;;26.20;57.30;;;;;;5109556;28;20474;-80
2023/06/10 10:04:26;;;;;;;13.00;6.50;;;26.30;57.20;;;;;;5100479;28;20622;-79
2023/06/10 10:06:54;;;;;;;9.93;6.20;;;26.30;57.10;;;;;;5099793;28;20821;-81
2023/06/10 10:09:24;;;;;;;8.43;5.87;;;26.30;57.00;;;;;;5110245;28;20988;-81
2023/06/10 10:11:55;;;;;;;9.57;5.70;;;26.30;56.90;;;;;;5110089;28;20494;-81
2023/06/10 10:14:25;;;;;;;8.97;5.73;;;26.40;56.90;;;;;;5106200;28;20483;-81
2023/06/10 10:17:02;;;;;;;7.93;6.07;;;26.50;56.70;;;;;;5108185;28;20589;-80
2023/06/10 10:19:36;;;;;;;9.97;5.70;;;26.50;56.70;;;;;;5083528;28;20443;-80
2023/06/10 10:22:13;;;;;;;7.07;5.00;;;26.50;56.40;;;;;;5102458;28;21028;-82
2023/06/10 10:24:50;;;;;;;9.87;5.30;;;26.60;56.30;;;;;;5084889;28;20459;-80
2023/06/10 10:27:21;;;;;;;9.47;4.90;;;26.60;56.40;;;;;;5105478;28;20924;-81
2023/06/10 10:29:54;;;;;;;10.57;5.80;;;26.60;56.30;;;;;;5102346;28;20971;-80
2023/06/10 10:32:30;;;;;;;8.20;5.27;;;26.60;56.10;;;;;;5091286;28;20566;-81
2023/06/10 10:35:08;;;;;;;11.97;5.30;;;26.70;55.90;;;;;;5109788;28;20470;-80
2023/06/10 10:37:37;;;;;;;9.57;5.37;;;26.80;55.60;;;;;;5087193;28;20516;-81
2023/06/10 10:40:09;;;;;;;6.60;4.60;;;26.80;55.20;;;;;;5105702;28;20547;-80
2023/06/10 10:42:38;;;;;;;9.83;5.20;;;26.80;55.00;;;;;;5098168;28;20451;-81
2023/06/10 10:45:08;;;;;;;6.47;4.30;;;26.90;55.00;;;;;;5086164;28;20807;-81
2023/06/10 10:47:38;;;;;;;8.30;4.83;;;26.90;54.80;;;;;;5107003;28;20452;-80
2023/06/10 10:50:15;;;;;;;10.30;5.00;;;26.90;54.80;;;;;;5079406;28;20460;-80
2023/06/10 10:52:55;;;;;;;7.40;4.97;;;27.00;54.50;;;;;;5090288;28;20626;-80
2023/06/10 10:55:26;;;;;;;8.53;4.47;;;27.10;54.00;;;;;;5088490;28;20537;-80
2023/06/10 10:58:00;;;;;;;8.60;4.60;;;27.20;53.90;;;;;;5086962;28;20456;-81
2023/06/10 11:00:29;;;;;;;8.97;5.63;;;27.20;53.70;;;;;;5083389;28;20471;-81
2023/06/10 11:03:08;;;;;;;10.60;5.57;;;27.30;53.80;;;;;;5106735;28;20452;-81
2023/06/10 11:05:40;;;;;;;10.87;5.40;;;27.40;53.70;;;;;;5109139;28;20432;-81
2023/06/10 11:08:10;;;;;;;8.70;4.93;;;27.40;53.80;;;;;;5106404;28;20462;-82
2023/06/10 11:10:40;;;;;;;9.93;4.97;;;27.50;53.80;;;;;;5111952;28;20444;-80
2023/06/10 11:13:10;;;;;;;8.93;5.07;;;27.50;53.70;;;;;;5090729;28;20456;-79
2023/06/10 11:15:46;;;;;;;8.97;4.97;;;27.50;53.60;;;;;;5110217;28;20575;-79
2023/06/10 11:18:23;;;;;;;7.47;5.33;;;27.50;53.20;;;;;;5089571;28;20474;-80
2023/06/10 11:20:59;;;;;;;8.70;5.07;;;27.50;53.10;;;;;;5107005;28;20530;-80
2023/06/10 11:23:41;;;;;;;7.23;4.93;;;27.60;53.20;;;;;;5103032;28;20502;-81
2023/06/10 11:26:16;;;;;;;7.67;5.10;;;27.60;53.10;;;;;;5101267;28;20444;-81
2023/06/10 11:29:03;;;;;;;8.07;4.87;;;27.60;52.60;;;;;;5106357;28;20468;-82
2023/06/10 11:31:33;;;;;;;7.57;5.03;;;27.60;52.60;;;;;;5097380;28;20433;-88
2023/06/10 11:34:04;;;;;;;9.33;4.97;;;27.70;52.30;;;;;;5104443;28;20213;-84
2023/06/10 11:36:34;;;;;;;8.23;5.00;;;27.70;52.40;;;;;;5087942;28;20470;-84
2023/06/10 11:39:05;;;;;;;7.80;5.23;;;27.70;52.30;;;;;;5091184;28;20452;-83
2023/06/10 11:41:36;;;;;;;8.73;5.23;;;27.70;52.30;;;;;;5104120;28;20964;-82
2023/06/10 11:44:05;;;;;;;8.47;5.00;;;27.70;52.30;;;;;;5100437;28;20547;-85
2023/06/10 11:46:35;;;;;;;9.10;5.90;;;27.80;52.40;;;;;;5106629;28;21252;-82
2023/06/10 11:49:05;;;;;;;9.20;5.57;;;27.80;52.50;;;;;;5088361;28;20844;-85
2023/06/10 11:51:35;;;;;;;10.90;5.97;;;27.90;52.30;;;;;;5083549;28;20449;-85
2023/06/10 11:54:04;;;;;;;9.53;4.50;;;27.90;52.50;;;;;;5110948;28;20460;-85
2023/06/10 11:56:34;;;;;;;8.43;4.63;;;27.90;52.20;;;;;;5104842;28;20518;-81
2023/06/10 11:59:05;;;;;;;8.23;5.40;;;28.00;51.90;;;;;;5110800;28;20880;-83
2023/06/10 12:01:34;;;;;;;11.07;5.40;;;28.00;51.80;;;;;;5090889;28;21049;-82
2023/06/10 12:04:05;;;;;;;10.93;5.13;;;28.10;51.80;;;;;;5097243;28;20888;-84
2023/06/10 12:06:41;;;;;;;7.37;4.80;;;28.10;51.50;;;;;;5104054;28;20460;-84
2023/06/10 12:09:18;;;;;;;8.63;5.50;;;28.10;51.20;;;;;;5104535;28;20551;-81
2023/06/10 12:11:59;;;;;;;6.80;4.83;;;28.20;51.30;;;;;;5089916;28;21173;-84
2023/06/10 12:14:51;;;;;;;7.27;4.80;;;28.20;51.30;;;;;;5106242;28;20447;-84
2023/06/10 12:17:19;;;;;;;10.90;5.73;;;28.30;51.30;;;;;;5087692;28;20456;-84
2023/06/10 12:19:47;;;;;;;10.40;5.73;;;28.30;51.40;;;;;;5093752;28;20460;-84
2023/06/10 12:22:16;;;;;;;8.73;5.27;;;28.40;51.30;;;;;;5104272;28;20487;-84
2023/06/10 12:24:59;;;;;;;7.37;4.60;;;28.40;51.10;;;;;;5091279;28;20455;-81
2023/06/10 12:27:29;;;;;;;8.77;4.77;;;28.50;51.10;;;;;;5099739;28;20521;-82
2023/06/10 12:30:00;;;;;;;8.20;5.20;;;28.50;51.00;;;;;;5105610;28;20467;-84
2023/06/10 12:32:41;;;;;;;7.03;4.73;;;28.50;51.20;;;;;;5096016;28;20475;-81
2023/06/10 12:35:11;;;;;;;8.60;5.10;;;28.50;51.10;;;;;;5102959;28;20902;-82
2023/06/10 12:37:41;;;;;;;9.90;5.23;;;28.50;51.00;;;;;;5103990;28;20452;-81
2023/06/10 12:40:11;;;;;;;8.70;5.17;;;28.50;51.30;;;;;;5097519;28;20448;-80
2023/06/10 12:42:41;;;;;;;8.97;5.10;;;28.50;51.60;;;;;;5107312;28;20454;-81
2023/06/10 12:45:14;;;;;;;8.37;5.30;;;28.50;51.80;;;;;;5103418;28;20457;-81
2023/06/10 12:47:42;;;;;;;8.60;5.73;;;28.50;51.80;;;;;;5094710;28;20964;-82